createdAt,value
2018-11-07T00:03:03.696Z,9.6
2018-11-07T00:08:04.443Z,9.5
2018-11-07T00:12:27.408Z,9.6
2018-11-07T00:17:28.078Z,9.5
2018-11-07T00:22:27.905Z,9.5
2018-11-07T00:27:28.505Z,9.5
2018-11-07T00:32:27.981Z,9.5
2018-11-07T00:37:28.078Z,9.4
2018-11-07T00:42:27.276Z,9.3
2018-11-07T00:47:28.110Z,9.3
2018-11-07T00:52:28.406Z,9.2
2018-11-07T00:57:27.861Z,9.2
2018-11-07T01:02:27.984Z,9.2
2018-11-07T01:07:28.326Z,9.0
2018-11-07T01:12:27.281Z,9.0
2018-11-07T01:17:28.151Z,8.9
2018-11-07T01:22:28.076Z,8.8
2018-11-07T01:27:27.902Z,8.9
2018-11-07T01:32:27.677Z,8.8
2018-11-07T01:37:27.902Z,8.8
2018-11-07T01:42:27.863Z,8.7
2018-11-07T01:47:28.542Z,8.6
2018-11-07T01:52:27.704Z,8.6
2018-11-07T01:57:28.433Z,8.5
2018-11-07T02:02:27.562Z,8.4
2018-11-07T02:07:28.669Z,8.3
2018-11-07T02:12:28.196Z,8.3
2018-11-07T02:17:28.254Z,8.2
2018-11-07T02:22:28.064Z,8.0
2018-11-07T02:27:28.544Z,7.8
2018-11-07T02:32:27.865Z,7.7
2018-11-07T02:37:27.957Z,7.7
2018-11-07T02:42:28.365Z,7.8
2018-11-07T02:47:27.342Z,7.8
2018-11-07T02:52:27.771Z,7.7
2018-11-07T02:57:27.492Z,7.6
2018-11-07T03:02:27.637Z,7.5
2018-11-07T03:07:28.672Z,7.3
2018-11-07T03:12:27.477Z,7.3
2018-11-07T03:17:29.426Z,7.2
2018-11-07T03:22:27.693Z,7.1
2018-11-07T03:27:29.846Z,7.0
2018-11-07T03:32:27.685Z,7.1
2018-11-07T03:37:28.943Z,7.1
2018-11-07T03:42:28.334Z,7.0
2018-11-07T03:47:27.910Z,7.0
2018-11-07T03:52:27.921Z,6.8
2018-11-07T03:57:27.301Z,6.8
2018-11-07T04:02:28.329Z,6.9
2018-11-07T04:07:28.538Z,6.7
2018-11-07T04:12:29.578Z,6.7
2018-11-07T04:17:28.358Z,6.8
2018-11-07T04:22:27.854Z,6.9
2018-11-07T04:27:27.748Z,6.8
2018-11-07T04:32:27.976Z,6.9
2018-11-07T04:37:28.286Z,6.9
2018-11-07T04:42:27.510Z,6.9
2018-11-07T04:47:27.907Z,6.8
2018-11-07T04:52:27.744Z,6.5
2018-11-07T04:57:27.328Z,6.5
2018-11-07T05:02:28.312Z,6.4
2018-11-07T05:07:28.006Z,6.5
2018-11-07T05:12:28.239Z,6.5
2018-11-07T05:17:28.248Z,6.4
2018-11-07T05:22:28.337Z,6.3
2018-11-07T05:27:27.860Z,6.2
2018-11-07T05:32:28.785Z,6.2
2018-11-07T05:37:28.231Z,6.2
2018-11-07T05:42:28.104Z,6.2
2018-11-07T05:47:28.427Z,6.2
2018-11-07T05:52:27.557Z,5.9
2018-11-07T05:57:28.543Z,5.7
2018-11-07T06:02:28.959Z,5.6
2018-11-07T06:07:27.734Z,5.5
2018-11-07T06:12:28.660Z,5.2
2018-11-07T06:17:28.794Z,5.3
2018-11-07T06:22:28.191Z,5.3
2018-11-07T06:27:28.435Z,5.5
2018-11-07T06:32:28.392Z,5.4
2018-11-07T06:37:28.809Z,5.5
2018-11-07T06:42:29.265Z,5.4
2018-11-07T06:47:27.844Z,5.4
2018-11-07T06:52:28.139Z,5.5
2018-11-07T06:57:28.646Z,5.5
2018-11-07T07:02:28.858Z,5.4
2018-11-07T07:07:28.869Z,5.3
2018-11-07T07:12:28.414Z,5.5
2018-11-07T07:17:29.799Z,5.6
2018-11-07T07:22:28.532Z,5.6
2018-11-07T07:27:28.549Z,5.8
2018-11-07T07:32:28.565Z,6.2
2018-11-07T07:37:27.544Z,6.5
2018-11-07T07:42:28.968Z,6.8
2018-11-07T07:47:28.957Z,7.1
2018-11-07T07:52:27.823Z,7.5
2018-11-07T07:57:27.783Z,7.8
2018-11-07T08:02:29.752Z,8.1
2018-11-07T08:07:28.844Z,8.2
2018-11-07T08:12:28.850Z,8.5
2018-11-07T08:17:29.084Z,8.8
2018-11-07T08:22:28.140Z,9.1
2018-11-07T08:27:28.833Z,9.4
2018-11-07T08:32:28.709Z,9.6
2018-11-07T08:37:28.278Z,9.6
2018-11-07T08:42:28.554Z,10.1
2018-11-07T08:47:29.475Z,10.1
2018-11-07T08:52:29.036Z,10.4
2018-11-07T08:57:28.801Z,10.7
2018-11-07T09:02:28.628Z,11.0
2018-11-07T09:07:28.332Z,11.6
2018-11-07T09:12:28.895Z,11.5
2018-11-07T09:17:28.755Z,11.9
2018-11-07T09:22:29.275Z,12.1
2018-11-07T09:27:28.012Z,12.4
2018-11-07T09:32:28.212Z,12.6
2018-11-07T09:37:29.204Z,12.9
2018-11-07T09:42:28.489Z,13.2
2018-11-07T09:47:28.846Z,13.5
2018-11-07T09:52:29.283Z,14.2
2018-11-07T09:57:28.041Z,14.1
2018-11-07T10:02:28.080Z,14.5
2018-11-07T10:07:29.531Z,14.9
2018-11-07T10:12:27.756Z,15.6
2018-11-07T10:17:28.935Z,15.5
2018-11-07T10:22:28.116Z,16.2
2018-11-07T10:27:29.482Z,16.2
2018-11-07T10:32:28.327Z,16.6
2018-11-07T10:37:32.463Z,17.2
2018-11-07T10:42:29.057Z,17.6
2018-11-07T10:47:29.094Z,17.9
2018-11-07T10:52:28.948Z,18.2
2018-11-07T10:57:28.467Z,18.2
2018-11-07T11:02:27.923Z,18.5
2018-11-07T11:07:28.834Z,18.8
2018-11-07T11:12:28.188Z,19.0
2018-11-07T11:17:28.809Z,19.3
2018-11-07T11:22:28.836Z,19.6
2018-11-07T11:27:28.395Z,19.8
2018-11-07T11:32:28.599Z,20.0
2018-11-07T11:37:28.466Z,20.2
2018-11-07T11:42:28.605Z,20.4
2018-11-07T11:47:28.817Z,20.6
2018-11-07T11:52:28.438Z,20.9
2018-11-07T11:57:28.320Z,21.0
2018-11-07T12:02:28.698Z,21.4
2018-11-07T12:07:29.222Z,21.4
2018-11-07T12:12:28.327Z,21.7
2018-11-07T12:17:29.106Z,22.0
2018-11-07T12:22:28.403Z,22.5
2018-11-07T12:27:28.459Z,22.5
2018-11-07T12:32:29.820Z,22.7
2018-11-07T12:37:28.458Z,22.9
2018-11-07T12:42:28.637Z,23.3
2018-11-07T12:47:29.109Z,23.4
2018-11-07T12:52:28.565Z,23.5
2018-11-07T12:57:28.162Z,23.6
2018-11-07T13:02:28.608Z,23.8
2018-11-07T13:07:29.148Z,23.3
2018-11-07T13:12:27.873Z,23.4
2018-11-07T13:17:28.988Z,23.4
2018-11-07T13:22:28.533Z,23.8
2018-11-07T13:27:28.610Z,23.8
2018-11-07T13:32:29.123Z,23.9
2018-11-07T13:37:28.456Z,24.0
2018-11-07T13:42:28.530Z,24.2
2018-11-07T13:47:28.528Z,24.2
2018-11-07T13:52:28.184Z,24.5
2018-11-07T13:57:28.393Z,25.2
2018-11-07T14:02:28.758Z,25.6
2018-11-07T14:07:28.990Z,26.6
2018-11-07T14:12:29.173Z,26.6
2018-11-07T14:17:28.943Z,27.9
2018-11-07T14:22:29.424Z,29.3
2018-11-07T14:27:27.935Z,30.5
2018-11-07T14:32:28.522Z,31.5
2018-11-07T14:37:28.689Z,32.0
2018-11-07T14:42:29.117Z,31.7
2018-11-07T14:47:27.875Z,29.0
2018-11-07T14:52:29.133Z,27.0
2018-11-07T14:57:27.969Z,25.6
2018-11-07T15:02:28.969Z,24.2
2018-11-07T15:07:30.339Z,21.7
2018-11-07T15:12:29.044Z,21.6
2018-11-07T15:17:29.370Z,20.9
2018-11-07T15:22:27.832Z,20.2
2018-11-07T15:27:28.500Z,19.6
2018-11-07T15:32:28.285Z,19.3
2018-11-07T15:37:28.003Z,18.9
2018-11-07T15:42:28.532Z,18.6
2018-11-07T15:47:29.709Z,18.2
2018-11-07T15:52:28.081Z,17.8
2018-11-07T15:57:28.465Z,17.4
2018-11-07T16:02:28.440Z,16.8
2018-11-07T16:07:28.404Z,16.7
2018-11-07T16:12:27.877Z,16.5
2018-11-07T16:17:28.338Z,15.7
2018-11-07T16:22:28.149Z,15.6
2018-11-07T16:27:28.379Z,15.3
2018-11-07T16:32:28.235Z,15.1
2018-11-07T16:37:27.968Z,14.9
2018-11-07T16:42:28.688Z,14.6
2018-11-07T16:47:28.069Z,14.3
2018-11-07T16:52:27.366Z,14.3
2018-11-07T16:57:27.971Z,14.0
2018-11-07T17:02:28.298Z,14.0
2018-11-07T17:07:28.311Z,13.9
2018-11-07T17:12:28.200Z,13.7
2018-11-07T17:17:28.730Z,13.6
2018-11-07T17:22:28.303Z,13.4
2018-11-07T17:27:28.085Z,13.1
2018-11-07T17:32:27.814Z,13.1
2018-11-07T17:37:27.815Z,12.8
2018-11-07T17:42:27.828Z,12.7
2018-11-07T17:47:27.983Z,12.5
2018-11-07T17:52:28.053Z,12.4
2018-11-07T17:57:27.557Z,12.4
2018-11-07T18:02:27.800Z,12.3
2018-11-07T18:07:28.470Z,12.2
2018-11-07T18:12:28.937Z,12.1
2018-11-07T18:17:27.847Z,12.1
2018-11-07T18:22:28.012Z,12.0
2018-11-07T18:27:27.785Z,11.9
2018-11-07T18:32:27.703Z,11.9
2018-11-07T18:37:28.272Z,11.9
2018-11-07T18:42:27.392Z,12.0
2018-11-07T18:47:28.132Z,11.9
2018-11-07T18:52:27.740Z,11.7
2018-11-07T18:57:28.188Z,11.7
2018-11-07T19:02:28.382Z,11.7
2018-11-07T19:07:28.703Z,11.8
2018-11-07T19:12:27.928Z,11.7
2018-11-07T19:17:27.848Z,11.8
2018-11-07T19:22:28.603Z,11.8
2018-11-07T19:27:27.895Z,11.8
2018-11-07T19:32:27.820Z,11.7
2018-11-07T19:37:27.493Z,11.7
2018-11-07T19:42:27.402Z,11.7
2018-11-07T19:47:28.528Z,11.6
2018-11-07T19:52:28.028Z,11.6
2018-11-07T19:57:27.924Z,11.4
2018-11-07T20:02:27.740Z,11.3
2018-11-07T20:07:29.860Z,11.4
2018-11-07T20:12:28.165Z,11.3
2018-11-07T20:17:28.152Z,11.4
2018-11-07T20:22:28.299Z,11.3
2018-11-07T20:27:28.022Z,11.3
2018-11-07T20:32:27.888Z,11.3
2018-11-07T20:37:28.025Z,11.3
2018-11-07T20:42:27.981Z,11.3
2018-11-07T20:47:27.259Z,11.3
2018-11-07T20:52:28.557Z,11.1
2018-11-07T20:57:27.670Z,11.1
2018-11-07T21:02:29.125Z,11.1
2018-11-07T21:07:28.237Z,11.1
2018-11-07T21:12:28.121Z,11.0
2018-11-07T21:17:28.662Z,10.8
2018-11-07T21:22:28.027Z,10.8
2018-11-07T21:27:27.647Z,10.9
2018-11-07T21:32:28.557Z,10.9
2018-11-07T21:37:28.175Z,10.9
2018-11-07T21:42:27.800Z,10.9
2018-11-07T21:47:27.660Z,11.0
2018-11-07T21:52:27.232Z,10.9
2018-11-07T21:57:28.535Z,10.9
2018-11-07T22:02:27.378Z,10.9
2018-11-07T22:07:28.721Z,10.9
2018-11-07T22:12:28.444Z,10.8
2018-11-07T22:17:28.079Z,10.8
2018-11-07T22:22:28.379Z,10.8
2018-11-07T22:27:28.190Z,10.7
2018-11-07T22:32:27.558Z,10.7
2018-11-07T22:37:27.315Z,10.8
2018-11-07T22:42:28.345Z,10.9
2018-11-07T22:47:28.710Z,10.9
2018-11-07T22:52:28.138Z,10.8
2018-11-07T22:57:28.049Z,10.9
2018-11-07T23:02:27.796Z,11.0
2018-11-07T23:07:27.652Z,11.0
2018-11-07T23:12:28.983Z,11.0
2018-11-07T23:22:45.707Z,10.8
2018-11-07T23:27:45.177Z,10.7
2018-11-07T23:32:44.312Z,10.8
2018-11-07T23:37:44.998Z,10.9
2018-11-07T23:42:43.743Z,10.9
2018-11-07T23:47:44.300Z,10.9
2018-11-07T23:52:44.511Z,10.9
2018-11-07T23:57:44.334Z,10.9
